sensor_id;sensor_type;location;lat;lon;timestamp;P1;durP1;ratioP1;P2;durP2;ratioP2
4268;SDS011;2148;48.554;7.834;2022-07-18T00:01:32;6.10;;;2.27;;
4268;SDS011;2148;48.554;7.834;2022-07-18T00:03:57;2.80;;;1.70;;
4268;SDS011;2148;48.554;7.834;2022-07-18T00:06:23;4.70;;;2.17;;
4268;SDS011;2148;48.554;7.834;2022-07-18T00:08:48;3.37;;;2.10;;
4268;SDS011;2148;48.554;7.834;2022-07-18T00:11:13;3.33;;;2.00;;
4268;SDS011;2148;48.554;7.834;2022-07-18T00:13:39;3.13;;;1.90;;
4268;SDS011;2148;48.554;7.834;2022-07-18T00:16:04;4.70;;;2.07;;
4268;SDS011;2148;48.554;7.834;2022-07-18T00:18:29;5.37;;;1.93;;
4268;SDS011;2148;48.554;7.834;2022-07-18T00:20:55;6.93;;;2.40;;
4268;SDS011;2148;48.554;7.834;2022-07-18T00:23:21;4.00;;;1.80;;
4268;SDS011;2148;48.554;7.834;2022-07-18T00:25:47;2.37;;;2.10;;
4268;SDS011;2148;48.554;7.834;2022-07-18T00:28:12;3.03;;;2.00;;
4268;SDS011;2148;48.554;7.834;2022-07-18T00:30:38;3.40;;;2.27;;
4268;SDS011;2148;48.554;7.834;2022-07-18T00:33:03;3.90;;;1.90;;
4268;SDS011;2148;48.554;7.834;2022-07-18T00:35:29;2.50;;;2.07;;
4268;SDS011;2148;48.554;7.834;2022-07-18T00:37:54;2.30;;;2.03;;
4268;SDS011;2148;48.554;7.834;2022-07-18T00:40:19;3.47;;;2.13;;
4268;SDS011;2148;48.554;7.834;2022-07-18T00:42:45;3.30;;;2.07;;
4268;SDS011;2148;48.554;7.834;2022-07-18T00:45:10;2.60;;;1.80;;
4268;SDS011;2148;48.554;7.834;2022-07-18T00:47:35;3.33;;;1.97;;
4268;SDS011;2148;48.554;7.834;2022-07-18T00:50:01;3.03;;;1.90;;
4268;SDS011;2148;48.554;7.834;2022-07-18T00:52:28;2.90;;;2.23;;
4268;SDS011;2148;48.554;7.834;2022-07-18T00:54:54;2.53;;;2.10;;
4268;SDS011;2148;48.554;7.834;2022-07-18T00:57:19;4.03;;;2.30;;
4268;SDS011;2148;48.554;7.834;2022-07-18T00:59:44;3.27;;;2.30;;
4268;SDS011;2148;48.554;7.834;2022-07-18T01:02:28;3.50;;;2.33;;
4268;SDS011;2148;48.554;7.834;2022-07-18T01:04:53;3.83;;;2.30;;
4268;SDS011;2148;48.554;7.834;2022-07-18T01:07:19;2.20;;;1.80;;
4268;SDS011;2148;48.554;7.834;2022-07-18T01:09:44;3.07;;;2.07;;
4268;SDS011;2148;48.554;7.834;2022-07-18T01:12:09;2.27;;;1.87;;
4268;SDS011;2148;48.554;7.834;2022-07-18T01:14:35;2.20;;;2.00;;
4268;SDS011;2148;48.554;7.834;2022-07-18T01:17:00;2.87;;;2.20;;
4268;SDS011;2148;48.554;7.834;2022-07-18T01:19:25;3.20;;;2.20;;
4268;SDS011;2148;48.554;7.834;2022-07-18T01:21:51;3.33;;;2.33;;
4268;SDS011;2148;48.554;7.834;2022-07-18T01:24:16;4.30;;;2.37;;
4268;SDS011;2148;48.554;7.834;2022-07-18T01:26:41;5.10;;;2.43;;
4268;SDS011;2148;48.554;7.834;2022-07-18T01:29:07;6.33;;;2.43;;
4268;SDS011;2148;48.554;7.834;2022-07-18T01:31:32;3.50;;;2.17;;
4268;SDS011;2148;48.554;7.834;2022-07-18T01:33:58;5.13;;;2.30;;
4268;SDS011;2148;48.554;7.834;2022-07-18T01:36:24;2.70;;;2.20;;
4268;SDS011;2148;48.554;7.834;2022-07-18T01:38:49;3.87;;;2.40;;
4268;SDS011;2148;48.554;7.834;2022-07-18T01:41:14;3.93;;;1.97;;
4268;SDS011;2148;48.554;7.834;2022-07-18T01:43:40;2.83;;;2.40;;
4268;SDS011;2148;48.554;7.834;2022-07-18T01:46:08;2.47;;;2.00;;
4268;SDS011;2148;48.554;7.834;2022-07-18T01:48:36;2.43;;;2.23;;
4268;SDS011;2148;48.554;7.834;2022-07-18T01:51:02;7.93;;;2.80;;
4268;SDS011;2148;48.554;7.834;2022-07-18T01:53:27;3.37;;;2.00;;
4268;SDS011;2148;48.554;7.834;2022-07-18T01:55:53;3.10;;;2.07;;
4268;SDS011;2148;48.554;7.834;2022-07-18T01:58:18;4.70;;;2.20;;
4268;SDS011;2148;48.554;7.834;2022-07-18T02:00:43;2.93;;;2.07;;
4268;SDS011;2148;48.554;7.834;2022-07-18T02:03:09;4.57;;;2.10;;
4268;SDS011;2148;48.554;7.834;2022-07-18T02:05:34;3.53;;;2.63;;
4268;SDS011;2148;48.554;7.834;2022-07-18T02:07:59;2.80;;;2.23;;
4268;SDS011;2148;48.554;7.834;2022-07-18T02:10:24;3.40;;;2.13;;
4268;SDS011;2148;48.554;7.834;2022-07-18T02:12:50;4.50;;;2.10;;
4268;SDS011;2148;48.554;7.834;2022-07-18T02:15:15;3.50;;;2.23;;
4268;SDS011;2148;48.554;7.834;2022-07-18T02:17:41;3.50;;;2.60;;
4268;SDS011;2148;48.554;7.834;2022-07-18T02:20:08;4.10;;;2.23;;
4268;SDS011;2148;48.554;7.834;2022-07-18T02:22:34;3.33;;;1.80;;
4268;SDS011;2148;48.554;7.834;2022-07-18T02:25:00;5.50;;;2.13;;
4268;SDS011;2148;48.554;7.834;2022-07-18T02:27:25;2.50;;;2.30;;
4268;SDS011;2148;48.554;7.834;2022-07-18T02:29:50;2.83;;;2.30;;
4268;SDS011;2148;48.554;7.834;2022-07-18T02:32:16;3.00;;;2.40;;
4268;SDS011;2148;48.554;7.834;2022-07-18T02:34:41;4.63;;;2.23;;
4268;SDS011;2148;48.554;7.834;2022-07-18T02:37:06;2.30;;;2.10;;
4268;SDS011;2148;48.554;7.834;2022-07-18T02:39:32;2.53;;;2.20;;
4268;SDS011;2148;48.554;7.834;2022-07-18T02:41:57;2.43;;;2.17;;
4268;SDS011;2148;48.554;7.834;2022-07-18T02:44:23;2.90;;;2.47;;
4268;SDS011;2148;48.554;7.834;2022-07-18T02:46:48;5.30;;;2.70;;
4268;SDS011;2148;48.554;7.834;2022-07-18T02:49:14;3.80;;;2.50;;
4268;SDS011;2148;48.554;7.834;2022-07-18T02:51:52;2.70;;;2.50;;
4268;SDS011;2148;48.554;7.834;2022-07-18T02:54:21;3.30;;;2.07;;
4268;SDS011;2148;48.554;7.834;2022-07-18T02:56:47;3.10;;;2.40;;
4268;SDS011;2148;48.554;7.834;2022-07-18T02:59:12;3.27;;;2.57;;
4268;SDS011;2148;48.554;7.834;2022-07-18T03:01:37;3.90;;;2.00;;
4268;SDS011;2148;48.554;7.834;2022-07-18T03:04:03;4.63;;;2.40;;
4268;SDS011;2148;48.554;7.834;2022-07-18T03:06:28;4.93;;;2.40;;
4268;SDS011;2148;48.554;7.834;2022-07-18T03:08:53;2.93;;;2.60;;
4268;SDS011;2148;48.554;7.834;2022-07-18T03:11:19;4.40;;;2.37;;
4268;SDS011;2148;48.554;7.834;2022-07-18T03:13:44;3.33;;;2.30;;
4268;SDS011;2148;48.554;7.834;2022-07-18T03:16:09;6.47;;;2.70;;
4268;SDS011;2148;48.554;7.834;2022-07-18T03:18:34;3.97;;;2.50;;
4268;SDS011;2148;48.554;7.834;2022-07-18T03:20:59;3.73;;;2.17;;
4268;SDS011;2148;48.554;7.834;2022-07-18T03:23:25;3.20;;;2.57;;
4268;SDS011;2148;48.554;7.834;2022-07-18T03:25:50;3.77;;;2.33;;
4268;SDS011;2148;48.554;7.834;2022-07-18T03:28:15;3.97;;;2.33;;
4268;SDS011;2148;48.554;7.834;2022-07-18T03:30:40;3.23;;;2.43;;
4268;SDS011;2148;48.554;7.834;2022-07-18T03:33:06;5.97;;;2.70;;
4268;SDS011;2148;48.554;7.834;2022-07-18T03:35:31;3.93;;;2.23;;
4268;SDS011;2148;48.554;7.834;2022-07-18T03:37:56;3.87;;;2.33;;
4268;SDS011;2148;48.554;7.834;2022-07-18T03:40:21;4.60;;;2.50;;
4268;SDS011;2148;48.554;7.834;2022-07-18T03:42:47;4.10;;;2.50;;
4268;SDS011;2148;48.554;7.834;2022-07-18T03:45:12;3.30;;;2.50;;
4268;SDS011;2148;48.554;7.834;2022-07-18T03:47:37;3.43;;;2.40;;
4268;SDS011;2148;48.554;7.834;2022-07-18T03:50:02;2.60;;;2.20;;
4268;SDS011;2148;48.554;7.834;2022-07-18T03:52:28;4.03;;;2.43;;
4268;SDS011;2148;48.554;7.834;2022-07-18T03:54:53;5.70;;;2.60;;
4268;SDS011;2148;48.554;7.834;2022-07-18T03:57:18;3.40;;;2.57;;
4268;SDS011;2148;48.554;7.834;2022-07-18T03:59:44;2.60;;;2.40;;
4268;SDS011;2148;48.554;7.834;2022-07-18T04:02:09;3.63;;;2.70;;
4268;SDS011;2148;48.554;7.834;2022-07-18T04:04:34;3.47;;;2.50;;
4268;SDS011;2148;48.554;7.834;2022-07-18T04:06:59;4.93;;;2.70;;
4268;SDS011;2148;48.554;7.834;2022-07-18T04:09:28;2.80;;;2.40;;
4268;SDS011;2148;48.554;7.834;2022-07-18T04:11:53;5.03;;;2.83;;
4268;SDS011;2148;48.554;7.834;2022-07-18T04:14:18;4.10;;;2.70;;
4268;SDS011;2148;48.554;7.834;2022-07-18T04:16:43;3.83;;;2.27;;
4268;SDS011;2148;48.554;7.834;2022-07-18T04:19:09;4.13;;;2.60;;
4268;SDS011;2148;48.554;7.834;2022-07-18T04:21:34;3.80;;;2.47;;
4268;SDS011;2148;48.554;7.834;2022-07-18T04:24:00;2.60;;;2.27;;
4268;SDS011;2148;48.554;7.834;2022-07-18T04:26:25;2.73;;;2.50;;
4268;SDS011;2148;48.554;7.834;2022-07-18T04:28:50;5.27;;;2.53;;
4268;SDS011;2148;48.554;7.834;2022-07-18T04:31:15;4.13;;;2.80;;
4268;SDS011;2148;48.554;7.834;2022-07-18T04:33:41;2.40;;;2.20;;
4268;SDS011;2148;48.554;7.834;2022-07-18T04:36:06;5.27;;;2.60;;
4268;SDS011;2148;48.554;7.834;2022-07-18T04:38:31;3.60;;;2.50;;
4268;SDS011;2148;48.554;7.834;2022-07-18T04:40:59;3.07;;;2.50;;
4268;SDS011;2148;48.554;7.834;2022-07-18T04:43:24;4.63;;;2.77;;
4268;SDS011;2148;48.554;7.834;2022-07-18T04:45:49;3.10;;;2.50;;
4268;SDS011;2148;48.554;7.834;2022-07-18T04:48:15;5.90;;;2.60;;
4268;SDS011;2148;48.554;7.834;2022-07-18T04:50:40;6.57;;;2.80;;
4268;SDS011;2148;48.554;7.834;2022-07-18T04:53:05;3.20;;;2.83;;
4268;SDS011;2148;48.554;7.834;2022-07-18T04:55:30;2.80;;;2.40;;
4268;SDS011;2148;48.554;7.834;2022-07-18T04:57:56;3.53;;;2.93;;
4268;SDS011;2148;48.554;7.834;2022-07-18T05:00:23;8.13;;;2.90;;
4268;SDS011;2148;48.554;7.834;2022-07-18T05:02:50;4.80;;;2.70;;
4268;SDS011;2148;48.554;7.834;2022-07-18T05:05:17;5.07;;;2.60;;
4268;SDS011;2148;48.554;7.834;2022-07-18T05:07:43;5.07;;;2.47;;
4268;SDS011;2148;48.554;7.834;2022-07-18T05:10:10;5.33;;;2.97;;
4268;SDS011;2148;48.554;7.834;2022-07-18T05:12:37;5.83;;;2.60;;
4268;SDS011;2148;48.554;7.834;2022-07-18T05:15:09;3.00;;;2.50;;
4268;SDS011;2148;48.554;7.834;2022-07-18T05:17:36;4.40;;;2.90;;
4268;SDS011;2148;48.554;7.834;2022-07-18T05:20:06;7.60;;;3.10;;
4268;SDS011;2148;48.554;7.834;2022-07-18T05:22:33;5.53;;;3.03;;
4268;SDS011;2148;48.554;7.834;2022-07-18T05:24:59;7.83;;;3.30;;
4268;SDS011;2148;48.554;7.834;2022-07-18T05:27:24;8.90;;;3.53;;
4268;SDS011;2148;48.554;7.834;2022-07-18T05:29:50;10.30;;;3.37;;
4268;SDS011;2148;48.554;7.834;2022-07-18T05:32:15;12.37;;;3.20;;
4268;SDS011;2148;48.554;7.834;2022-07-18T05:34:40;12.40;;;3.60;;
4268;SDS011;2148;48.554;7.834;2022-07-18T05:37:05;6.43;;;3.63;;
4268;SDS011;2148;48.554;7.834;2022-07-18T05:39:31;11.10;;;3.17;;
4268;SDS011;2148;48.554;7.834;2022-07-18T05:41:57;6.80;;;3.20;;
4268;SDS011;2148;48.554;7.834;2022-07-18T05:44:22;6.87;;;3.03;;
4268;SDS011;2148;48.554;7.834;2022-07-18T05:46:47;17.50;;;3.83;;
4268;SDS011;2148;48.554;7.834;2022-07-18T05:49:13;5.67;;;3.23;;
4268;SDS011;2148;48.554;7.834;2022-07-18T05:51:39;6.50;;;3.80;;
4268;SDS011;2148;48.554;7.834;2022-07-18T05:54:05;5.27;;;3.10;;
4268;SDS011;2148;48.554;7.834;2022-07-18T05:56:30;5.70;;;3.17;;
4268;SDS011;2148;48.554;7.834;2022-07-18T05:58:55;6.83;;;3.63;;
4268;SDS011;2148;48.554;7.834;2022-07-18T06:01:21;6.10;;;3.47;;
4268;SDS011;2148;48.554;7.834;2022-07-18T06:03:46;4.07;;;3.20;;
4268;SDS011;2148;48.554;7.834;2022-07-18T06:06:12;6.53;;;3.20;;
4268;SDS011;2148;48.554;7.834;2022-07-18T06:08:38;3.70;;;2.90;;
4268;SDS011;2148;48.554;7.834;2022-07-18T06:11:03;3.80;;;2.63;;
4268;SDS011;2148;48.554;7.834;2022-07-18T06:13:29;4.47;;;3.00;;
4268;SDS011;2148;48.554;7.834;2022-07-18T06:15:55;3.37;;;2.73;;
4268;SDS011;2148;48.554;7.834;2022-07-18T06:18:20;4.83;;;2.80;;
4268;SDS011;2148;48.554;7.834;2022-07-18T06:20:45;4.87;;;2.83;;
4268;SDS011;2148;48.554;7.834;2022-07-18T06:23:10;7.63;;;2.50;;
4268;SDS011;2148;48.554;7.834;2022-07-18T06:25:36;3.33;;;2.87;;
4268;SDS011;2148;48.554;7.834;2022-07-18T06:28:01;6.03;;;3.03;;
4268;SDS011;2148;48.554;7.834;2022-07-18T06:30:26;3.57;;;2.33;;
4268;SDS011;2148;48.554;7.834;2022-07-18T06:32:51;4.50;;;3.00;;
4268;SDS011;2148;48.554;7.834;2022-07-18T06:35:17;5.40;;;2.40;;
4268;SDS011;2148;48.554;7.834;2022-07-18T06:37:42;4.03;;;2.50;;
4268;SDS011;2148;48.554;7.834;2022-07-18T06:40:07;5.17;;;3.30;;
4268;SDS011;2148;48.554;7.834;2022-07-18T06:42:33;3.37;;;2.57;;
4268;SDS011;2148;48.554;7.834;2022-07-18T06:44:58;6.70;;;3.00;;
4268;SDS011;2148;48.554;7.834;2022-07-18T06:47:24;2.73;;;2.40;;
4268;SDS011;2148;48.554;7.834;2022-07-18T06:49:49;3.70;;;2.77;;
4268;SDS011;2148;48.554;7.834;2022-07-18T06:52:14;3.40;;;3.10;;
4268;SDS011;2148;48.554;7.834;2022-07-18T06:54:40;3.50;;;2.97;;
4268;SDS011;2148;48.554;7.834;2022-07-18T06:57:06;4.70;;;2.90;;
4268;SDS011;2148;48.554;7.834;2022-07-18T06:59:34;5.20;;;2.73;;
4268;SDS011;2148;48.554;7.834;2022-07-18T07:02:00;5.90;;;3.00;;
4268;SDS011;2148;48.554;7.834;2022-07-18T07:04:25;4.13;;;2.93;;
4268;SDS011;2148;48.554;7.834;2022-07-18T07:06:50;4.17;;;2.80;;
4268;SDS011;2148;48.554;7.834;2022-07-18T07:09:16;5.90;;;3.17;;
4268;SDS011;2148;48.554;7.834;2022-07-18T07:11:41;3.57;;;2.83;;
4268;SDS011;2148;48.554;7.834;2022-07-18T07:14:06;4.83;;;2.80;;
4268;SDS011;2148;48.554;7.834;2022-07-18T07:16:31;4.10;;;2.63;;
4268;SDS011;2148;48.554;7.834;2022-07-18T07:18:57;4.77;;;2.70;;
4268;SDS011;2148;48.554;7.834;2022-07-18T07:21:22;3.37;;;3.00;;
4268;SDS011;2148;48.554;7.834;2022-07-18T07:23:47;5.23;;;3.27;;
4268;SDS011;2148;48.554;7.834;2022-07-18T07:26:12;4.07;;;2.80;;
4268;SDS011;2148;48.554;7.834;2022-07-18T07:28:38;5.03;;;3.07;;
4268;SDS011;2148;48.554;7.834;2022-07-18T07:31:03;3.63;;;3.00;;
4268;SDS011;2148;48.554;7.834;2022-07-18T07:33:28;3.30;;;2.60;;
4268;SDS011;2148;48.554;7.834;2022-07-18T07:35:53;3.93;;;2.80;;
4268;SDS011;2148;48.554;7.834;2022-07-18T07:38:19;4.30;;;2.87;;
4268;SDS011;2148;48.554;7.834;2022-07-18T07:40:45;3.87;;;2.70;;
4268;SDS011;2148;48.554;7.834;2022-07-18T07:43:12;4.83;;;3.40;;
4268;SDS011;2148;48.554;7.834;2022-07-18T07:45:38;4.83;;;2.90;;
4268;SDS011;2148;48.554;7.834;2022-07-18T07:48:04;3.83;;;2.73;;
4268;SDS011;2148;48.554;7.834;2022-07-18T07:50:30;4.57;;;2.93;;
4268;SDS011;2148;48.554;7.834;2022-07-18T07:52:56;6.23;;;2.93;;
4268;SDS011;2148;48.554;7.834;2022-07-18T07:55:24;3.73;;;2.83;;
4268;SDS011;2148;48.554;7.834;2022-07-18T07:57:50;6.00;;;3.20;;
4268;SDS011;2148;48.554;7.834;2022-07-18T08:00:15;2.77;;;2.57;;
4268;SDS011;2148;48.554;7.834;2022-07-18T08:02:55;5.77;;;2.83;;
4268;SDS011;2148;48.554;7.834;2022-07-18T08:05:26;5.03;;;3.10;;
4268;SDS011;2148;48.554;7.834;2022-07-18T08:07:52;5.57;;;3.33;;
4268;SDS011;2148;48.554;7.834;2022-07-18T08:10:17;7.07;;;3.77;;
4268;SDS011;2148;48.554;7.834;2022-07-18T08:12:43;5.77;;;3.33;;
4268;SDS011;2148;48.554;7.834;2022-07-18T08:15:08;3.67;;;3.00;;
4268;SDS011;2148;48.554;7.834;2022-07-18T08:17:34;4.37;;;2.93;;
4268;SDS011;2148;48.554;7.834;2022-07-18T08:19:59;4.27;;;2.83;;
4268;SDS011;2148;48.554;7.834;2022-07-18T08:22:24;4.70;;;3.10;;
4268;SDS011;2148;48.554;7.834;2022-07-18T08:24:50;5.40;;;3.17;;
4268;SDS011;2148;48.554;7.834;2022-07-18T08:27:15;4.37;;;3.27;;
4268;SDS011;2148;48.554;7.834;2022-07-18T08:29:41;3.77;;;2.77;;
4268;SDS011;2148;48.554;7.834;2022-07-18T08:32:06;11.17;;;3.50;;
4268;SDS011;2148;48.554;7.834;2022-07-18T08:34:31;4.90;;;3.10;;
4268;SDS011;2148;48.554;7.834;2022-07-18T08:36:57;5.53;;;3.20;;
4268;SDS011;2148;48.554;7.834;2022-07-18T08:39:22;4.90;;;3.47;;
4268;SDS011;2148;48.554;7.834;2022-07-18T08:41:47;5.27;;;3.10;;
4268;SDS011;2148;48.554;7.834;2022-07-18T08:44:15;9.10;;;3.30;;
4268;SDS011;2148;48.554;7.834;2022-07-18T08:46:40;4.83;;;2.90;;
4268;SDS011;2148;48.554;7.834;2022-07-18T08:49:12;3.17;;;2.70;;
4268;SDS011;2148;48.554;7.834;2022-07-18T08:51:38;7.17;;;3.17;;
4268;SDS011;2148;48.554;7.834;2022-07-18T08:54:04;4.23;;;2.90;;
4268;SDS011;2148;48.554;7.834;2022-07-18T08:56:30;4.70;;;2.80;;
4268;SDS011;2148;48.554;7.834;2022-07-18T08:58:55;4.20;;;3.13;;
4268;SDS011;2148;48.554;7.834;2022-07-18T09:01:20;5.67;;;3.07;;
4268;SDS011;2148;48.554;7.834;2022-07-18T09:03:45;4.13;;;2.77;;
4268;SDS011;2148;48.554;7.834;2022-07-18T09:06:40;5.60;;;2.90;;
4268;SDS011;2148;48.554;7.834;2022-07-18T09:09:06;7.83;;;3.00;;
4268;SDS011;2148;48.554;7.834;2022-07-18T09:11:32;5.87;;;2.93;;
4268;SDS011;2148;48.554;7.834;2022-07-18T09:13:57;5.33;;;3.17;;
4268;SDS011;2148;48.554;7.834;2022-07-18T09:16:22;6.00;;;3.00;;
4268;SDS011;2148;48.554;7.834;2022-07-18T09:18:48;6.60;;;3.10;;
4268;SDS011;2148;48.554;7.834;2022-07-18T09:21:14;8.53;;;3.33;;
4268;SDS011;2148;48.554;7.834;2022-07-18T09:23:43;6.10;;;2.70;;
4268;SDS011;2148;48.554;7.834;2022-07-18T09:26:10;7.13;;;2.80;;
4268;SDS011;2148;48.554;7.834;2022-07-18T09:31:18;4.10;;;3.30;;
4268;SDS011;2148;48.554;7.834;2022-07-18T09:34:01;5.43;;;3.00;;
4268;SDS011;2148;48.554;7.834;2022-07-18T09:36:27;3.67;;;2.53;;
4268;SDS011;2148;48.554;7.834;2022-07-18T09:38:53;3.63;;;2.40;;
4268;SDS011;2148;48.554;7.834;2022-07-18T09:41:23;3.80;;;2.17;;
4268;SDS011;2148;48.554;7.834;2022-07-18T09:43:49;4.97;;;2.90;;
4268;SDS011;2148;48.554;7.834;2022-07-18T09:46:15;3.33;;;2.67;;
4268;SDS011;2148;48.554;7.834;2022-07-18T09:48:40;5.20;;;2.60;;
4268;SDS011;2148;48.554;7.834;2022-07-18T09:51:06;2.97;;;2.33;;
4268;SDS011;2148;48.554;7.834;2022-07-18T09:53:40;3.10;;;2.50;;
4268;SDS011;2148;48.554;7.834;2022-07-18T09:56:24;4.90;;;2.70;;
4268;SDS011;2148;48.554;7.834;2022-07-18T09:58:51;2.87;;;2.50;;
4268;SDS011;2148;48.554;7.834;2022-07-18T10:01:19;3.90;;;2.53;;
4268;SDS011;2148;48.554;7.834;2022-07-18T10:03:45;3.37;;;2.60;;
4268;SDS011;2148;48.554;7.834;2022-07-18T10:06:10;5.13;;;2.53;;
4268;SDS011;2148;48.554;7.834;2022-07-18T10:08:36;4.40;;;2.23;;
4268;SDS011;2148;48.554;7.834;2022-07-18T10:11:04;5.43;;;2.50;;
4268;SDS011;2148;48.554;7.834;2022-07-18T10:13:31;3.07;;;2.67;;
4268;SDS011;2148;48.554;7.834;2022-07-18T10:15:57;4.07;;;2.30;;
4268;SDS011;2148;48.554;7.834;2022-07-18T10:18:23;4.20;;;2.70;;
4268;SDS011;2148;48.554;7.834;2022-07-18T10:26:16;5.70;;;2.57;;
4268;SDS011;2148;48.554;7.834;2022-07-18T10:31:19;3.43;;;2.73;;
4268;SDS011;2148;48.554;7.834;2022-07-18T10:33:46;3.70;;;2.77;;
4268;SDS011;2148;48.554;7.834;2022-07-18T10:38:40;5.80;;;2.80;;
4268;SDS011;2148;48.554;7.834;2022-07-18T10:42:19;3.97;;;2.70;;
4268;SDS011;2148;48.554;7.834;2022-07-18T10:57:28;4.93;;;2.50;;
4268;SDS011;2148;48.554;7.834;2022-07-18T11:02:37;3.07;;;2.20;;
4268;SDS011;2148;48.554;7.834;2022-07-18T11:05:03;3.20;;;2.50;;
4268;SDS011;2148;48.554;7.834;2022-07-18T11:16:00;3.13;;;2.30;;
4268;SDS011;2148;48.554;7.834;2022-07-18T11:21:27;3.35;;;2.42;;
4268;SDS011;2148;48.554;7.834;2022-07-18T11:26:29;2.70;;;2.20;;
4268;SDS011;2148;48.554;7.834;2022-07-18T11:28:59;2.92;;;2.10;;
4268;SDS011;2148;48.554;7.834;2022-07-18T11:31:29;2.58;;;2.05;;
4268;SDS011;2148;48.554;7.834;2022-07-18T11:33:55;2.75;;;2.30;;
4268;SDS011;2148;48.554;7.834;2022-07-18T11:36:22;5.18;;;2.45;;
4268;SDS011;2148;48.554;7.834;2022-07-18T11:41:14;7.60;;;2.50;;
4268;SDS011;2148;48.554;7.834;2022-07-18T11:43:40;3.53;;;2.22;;
4268;SDS011;2148;48.554;7.834;2022-07-18T11:46:09;3.40;;;1.95;;
4268;SDS011;2148;48.554;7.834;2022-07-18T11:48:36;2.47;;;2.28;;
4268;SDS011;2148;48.554;7.834;2022-07-18T11:51:03;2.60;;;2.10;;
4268;SDS011;2148;48.554;7.834;2022-07-18T11:53:33;4.65;;;2.35;;
4268;SDS011;2148;48.554;7.834;2022-07-18T11:56:03;3.22;;;2.17;;
4268;SDS011;2148;48.554;7.834;2022-07-18T11:58:34;4.38;;;2.30;;
4268;SDS011;2148;48.554;7.834;2022-07-18T12:01:01;4.97;;;2.60;;
4268;SDS011;2148;48.554;7.834;2022-07-18T12:03:26;5.10;;;2.40;;
4268;SDS011;2148;48.554;7.834;2022-07-18T12:05:52;4.50;;;2.40;;
4268;SDS011;2148;48.554;7.834;2022-07-18T12:08:25;4.03;;;2.30;;
4268;SDS011;2148;48.554;7.834;2022-07-18T12:18:58;3.47;;;2.20;;
4268;SDS011;2148;48.554;7.834;2022-07-18T12:24:19;4.45;;;2.47;;
4268;SDS011;2148;48.554;7.834;2022-07-18T12:26:48;3.35;;;2.55;;
4268;SDS011;2148;48.554;7.834;2022-07-18T12:29:31;5.78;;;2.20;;
4268;SDS011;2148;48.554;7.834;2022-07-18T12:31:56;2.15;;;1.95;;
4268;SDS011;2148;48.554;7.834;2022-07-18T12:34:22;3.50;;;2.28;;
4268;SDS011;2148;48.554;7.834;2022-07-18T12:36:54;4.28;;;2.50;;
4268;SDS011;2148;48.554;7.834;2022-07-18T12:41:54;4.25;;;2.00;;
4268;SDS011;2148;48.554;7.834;2022-07-18T12:44:20;4.07;;;2.58;;
4268;SDS011;2148;48.554;7.834;2022-07-18T12:46:45;3.38;;;2.30;;
4268;SDS011;2148;48.554;7.834;2022-07-18T12:49:11;2.20;;;2.00;;
4268;SDS011;2148;48.554;7.834;2022-07-18T12:51:36;3.25;;;2.95;;
4268;SDS011;2148;48.554;7.834;2022-07-18T12:54:01;4.05;;;2.35;;
4268;SDS011;2148;48.554;7.834;2022-07-18T12:56:26;5.43;;;2.63;;
4268;SDS011;2148;48.554;7.834;2022-07-18T12:58:52;3.55;;;2.45;;
4268;SDS011;2148;48.554;7.834;2022-07-18T13:01:17;2.47;;;2.15;;
4268;SDS011;2148;48.554;7.834;2022-07-18T13:03:42;4.50;;;2.20;;
4268;SDS011;2148;48.554;7.834;2022-07-18T13:06:07;2.50;;;2.30;;
4268;SDS011;2148;48.554;7.834;2022-07-18T13:08:33;2.60;;;2.20;;
4268;SDS011;2148;48.554;7.834;2022-07-18T13:10:58;3.78;;;2.13;;
4268;SDS011;2148;48.554;7.834;2022-07-18T13:13:24;2.42;;;2.13;;
4268;SDS011;2148;48.554;7.834;2022-07-18T13:15:49;4.07;;;2.00;;
4268;SDS011;2148;48.554;7.834;2022-07-18T13:18:14;4.20;;;2.28;;
4268;SDS011;2148;48.554;7.834;2022-07-18T13:20:40;3.40;;;2.33;;
4268;SDS011;2148;48.554;7.834;2022-07-18T13:23:06;2.30;;;2.08;;
4268;SDS011;2148;48.554;7.834;2022-07-18T13:25:31;4.45;;;2.50;;
4268;SDS011;2148;48.554;7.834;2022-07-18T13:27:59;3.33;;;2.20;;
4268;SDS011;2148;48.554;7.834;2022-07-18T13:30:24;3.58;;;2.33;;
4268;SDS011;2148;48.554;7.834;2022-07-18T13:32:50;3.05;;;2.28;;
4268;SDS011;2148;48.554;7.834;2022-07-18T13:35:15;4.18;;;2.50;;
4268;SDS011;2148;48.554;7.834;2022-07-18T13:37:41;3.40;;;2.20;;
4268;SDS011;2148;48.554;7.834;2022-07-18T13:40:06;2.75;;;2.20;;
4268;SDS011;2148;48.554;7.834;2022-07-18T13:42:32;2.75;;;2.30;;
4268;SDS011;2148;48.554;7.834;2022-07-18T13:44:58;3.30;;;2.53;;
4268;SDS011;2148;48.554;7.834;2022-07-18T13:47:23;4.03;;;2.40;;
4268;SDS011;2148;48.554;7.834;2022-07-18T13:49:49;3.20;;;2.15;;
4268;SDS011;2148;48.554;7.834;2022-07-18T13:52:14;2.72;;;2.20;;
4268;SDS011;2148;48.554;7.834;2022-07-18T13:54:40;5.13;;;2.20;;
4268;SDS011;2148;48.554;7.834;2022-07-18T13:57:05;3.53;;;2.00;;
4268;SDS011;2148;48.554;7.834;2022-07-18T13:59:30;3.63;;;2.20;;
4268;SDS011;2148;48.554;7.834;2022-07-18T14:01:56;2.60;;;2.40;;
4268;SDS011;2148;48.554;7.834;2022-07-18T14:04:21;2.20;;;1.92;;
4268;SDS011;2148;48.554;7.834;2022-07-18T14:06:46;2.85;;;2.10;;
4268;SDS011;2148;48.554;7.834;2022-07-18T14:09:12;5.38;;;2.28;;
4268;SDS011;2148;48.554;7.834;2022-07-18T14:11:38;2.47;;;2.03;;
4268;SDS011;2148;48.554;7.834;2022-07-18T14:14:03;2.78;;;2.15;;
4268;SDS011;2148;48.554;7.834;2022-07-18T14:16:29;3.00;;;2.30;;
4268;SDS011;2148;48.554;7.834;2022-07-18T14:18:55;3.47;;;2.08;;
4268;SDS011;2148;48.554;7.834;2022-07-18T14:21:20;2.42;;;2.22;;
4268;SDS011;2148;48.554;7.834;2022-07-18T14:23:46;5.53;;;2.40;;
4268;SDS011;2148;48.554;7.834;2022-07-18T14:26:11;5.18;;;2.60;;
4268;SDS011;2148;48.554;7.834;2022-07-18T14:28:36;3.58;;;2.30;;
4268;SDS011;2148;48.554;7.834;2022-07-18T14:31:02;2.80;;;2.30;;
4268;SDS011;2148;48.554;7.834;2022-07-18T14:33:27;2.70;;;2.22;;
4268;SDS011;2148;48.554;7.834;2022-07-18T14:35:52;7.32;;;2.38;;
4268;SDS011;2148;48.554;7.834;2022-07-18T14:38:17;2.25;;;1.90;;
4268;SDS011;2148;48.554;7.834;2022-07-18T14:40:42;4.07;;;2.42;;
4268;SDS011;2148;48.554;7.834;2022-07-18T14:43:08;3.33;;;2.08;;
4268;SDS011;2148;48.554;7.834;2022-07-18T14:45:33;2.40;;;2.20;;
4268;SDS011;2148;48.554;7.834;2022-07-18T14:47:58;2.35;;;2.05;;
4268;SDS011;2148;48.554;7.834;2022-07-18T14:50:24;3.40;;;2.20;;
4268;SDS011;2148;48.554;7.834;2022-07-18T14:52:49;2.88;;;2.30;;
4268;SDS011;2148;48.554;7.834;2022-07-18T14:55:14;3.60;;;2.20;;
4268;SDS011;2148;48.554;7.834;2022-07-18T14:57:41;2.63;;;2.40;;
4268;SDS011;2148;48.554;7.834;2022-07-18T15:00:06;2.60;;;2.20;;
4268;SDS011;2148;48.554;7.834;2022-07-18T15:02:34;3.10;;;2.10;;
4268;SDS011;2148;48.554;7.834;2022-07-18T15:05:00;4.90;;;2.10;;
4268;SDS011;2148;48.554;7.834;2022-07-18T15:07:25;5.15;;;2.47;;
4268;SDS011;2148;48.554;7.834;2022-07-18T15:09:50;3.08;;;2.10;;
4268;SDS011;2148;48.554;7.834;2022-07-18T15:12:15;3.85;;;2.42;;
4268;SDS011;2148;48.554;7.834;2022-07-18T15:14:41;2.72;;;2.28;;
4268;SDS011;2148;48.554;7.834;2022-07-18T15:17:06;2.97;;;2.25;;
4268;SDS011;2148;48.554;7.834;2022-07-18T15:19:31;3.28;;;2.30;;
4268;SDS011;2148;48.554;7.834;2022-07-18T15:21:57;2.33;;;2.13;;
4268;SDS011;2148;48.554;7.834;2022-07-18T15:24:22;4.90;;;2.30;;
4268;SDS011;2148;48.554;7.834;2022-07-18T15:26:47;3.10;;;2.30;;
4268;SDS011;2148;48.554;7.834;2022-07-18T15:29:12;3.60;;;2.20;;
4268;SDS011;2148;48.554;7.834;2022-07-18T15:31:38;2.40;;;2.20;;
4268;SDS011;2148;48.554;7.834;2022-07-18T15:34:04;3.70;;;2.47;;
4268;SDS011;2148;48.554;7.834;2022-07-18T15:36:30;4.15;;;2.33;;
4268;SDS011;2148;48.554;7.834;2022-07-18T15:38:55;5.60;;;2.63;;
4268;SDS011;2148;48.554;7.834;2022-07-18T15:41:20;4.13;;;2.50;;
4268;SDS011;2148;48.554;7.834;2022-07-18T15:43:47;3.78;;;2.20;;
4268;SDS011;2148;48.554;7.834;2022-07-18T15:46:12;3.15;;;2.40;;
4268;SDS011;2148;48.554;7.834;2022-07-18T15:48:41;2.55;;;2.28;;
4268;SDS011;2148;48.554;7.834;2022-07-18T15:51:10;3.40;;;2.00;;
4268;SDS011;2148;48.554;7.834;2022-07-18T15:53:35;3.90;;;2.30;;
4268;SDS011;2148;48.554;7.834;2022-07-18T15:56:01;2.63;;;2.10;;
4268;SDS011;2148;48.554;7.834;2022-07-18T15:58:26;2.97;;;2.20;;
4268;SDS011;2148;48.554;7.834;2022-07-18T16:00:51;4.47;;;2.83;;
4268;SDS011;2148;48.554;7.834;2022-07-18T16:03:17;3.10;;;2.55;;
4268;SDS011;2148;48.554;7.834;2022-07-18T16:05:42;4.43;;;2.50;;
4268;SDS011;2148;48.554;7.834;2022-07-18T16:08:07;3.58;;;2.33;;